ASL100 LEBB-LIMJ
Flight info
| Callsign | ASL100 |
|---|---|
| Flight time | 1h 42m |
| Altitude | 350 |
| Route | SSN2B SSN FJR UL127 STP Y15 ABN ABN1N |
| Aircraft | A320/M-SDE3FGHIRWY/LB1 |
Departure
| Time | 2026-04-16 11:07 |
|---|---|
| Airport | Bilbao Airport (LEBB) |
Arrival
| Time | 2026-04-16 12:49 |
|---|---|
| Airport | Genoa Cristoforo Colombo Airport (LIMJ) |
| Time | Latitude | Longitude | Altitude | Speed | Heading |
|---|---|---|---|---|---|
| 2026-04-16 10:54 | 43.30392 | -2.90510 | 153 ft | 0 kts | 26° |
| 2026-04-16 10:57 | 43.30376 | -2.90521 | 151 ft | 3 kts | 26° |
| 2026-04-16 10:58 | 43.30358 | -2.90533 | 150 ft | 3 kts | 26° |
| 2026-04-16 10:58 | 43.30341 | -2.90544 | 148 ft | 3 kts | 26° |
| 2026-04-16 10:58 | 43.30324 | -2.90556 | 146 ft | 3 kts | 26° |
| 2026-04-16 10:58 | 43.30306 | -2.90562 | 145 ft | 3 kts | 346° |
| 2026-04-16 10:59 | 43.30290 | -2.90552 | 144 ft | 3 kts | 309° |
| 2026-04-16 10:59 | 43.30282 | -2.90532 | 145 ft | 2 kts | 289° |
| 2026-04-16 10:59 | 43.30276 | -2.90512 | 145 ft | 2 kts | 289° |
| 2026-04-16 10:59 | 43.30271 | -2.90492 | 145 ft | 2 kts | 289° |
| 2026-04-16 11:00 | 43.30270 | -2.90487 | 146 ft | 2 kts | 290° |
| 2026-04-16 11:00 | 43.30266 | -2.90503 | 145 ft | 3 kts | 218° |
| 2026-04-16 11:00 | 43.30225 | -2.90530 | 142 ft | 10 kts | 203° |
| 2026-04-16 11:00 | 43.30152 | -2.90605 | 137 ft | 16 kts | 248° |
| 2026-04-16 11:01 | 43.30183 | -2.90762 | 133 ft | 19 kts | 299° |
| 2026-04-16 11:01 | 43.30189 | -2.90777 | 132 ft | 0 kts | 298° |
| 2026-04-16 11:02 | 43.30194 | -2.90790 | 132 ft | 3 kts | 298° |
| 2026-04-16 11:02 | 43.30210 | -2.90830 | 132 ft | 6 kts | 300° |
| 2026-04-16 11:02 | 43.30234 | -2.90889 | 133 ft | 8 kts | 297° |
| 2026-04-16 11:03 | 43.30262 | -2.90964 | 133 ft | 10 kts | 297° |
| 2026-04-16 11:03 | 43.30300 | -2.91063 | 132 ft | 14 kts | 298° |
| 2026-04-16 11:03 | 43.30401 | -2.91316 | 135 ft | 17 kts | 295° |
| 2026-04-16 11:04 | 43.30458 | -2.91472 | 134 ft | 20 kts | 296° |
| 2026-04-16 11:04 | 43.30521 | -2.91657 | 132 ft | 24 kts | 296° |
| 2026-04-16 11:04 | 43.30600 | -2.91876 | 126 ft | 28 kts | 298° |
| 2026-04-16 11:04 | 43.30698 | -2.92121 | 123 ft | 31 kts | 300° |
| 2026-04-16 11:05 | 43.30785 | -2.92386 | 126 ft | 28 kts | 293° |
| 2026-04-16 11:05 | 43.30761 | -2.92506 | 127 ft | 14 kts | 183° |
| 2026-04-16 11:05 | 43.30662 | -2.92464 | 128 ft | 16 kts | 154° |
| 2026-04-16 11:05 | 43.30585 | -2.92359 | 128 ft | 1 kts | 134° |
| 2026-04-16 11:06 | 43.30583 | -2.92353 | 128 ft | 2 kts | 120° |
| 2026-04-16 11:06 | 43.30515 | -2.92158 | 125 ft | 63 kts | 116° |
| 2026-04-16 11:06 | 43.30178 | -2.91244 | 127 ft | 147 kts | 114° |
| 2026-04-16 11:06 | 43.29664 | -2.89821 | 634 ft | 179 kts | 116° |
| 2026-04-16 11:07 | 43.29042 | -2.88236 | 1538 ft | 196 kts | 118° |
| 2026-04-16 11:07 | 43.28334 | -2.86585 | 2594 ft | 205 kts | 121° |
| 2026-04-16 11:07 | 43.27619 | -2.84939 | 3925 ft | 195 kts | 121° |
| 2026-04-16 11:07 | 43.27002 | -2.83360 | 5314 ft | 179 kts | 116° |
| 2026-04-16 11:08 | 43.26447 | -2.81767 | 6135 ft | 198 kts | 117° |
| 2026-04-16 11:08 | 43.25833 | -2.79991 | 6682 ft | 212 kts | 115° |
| 2026-04-16 11:08 | 43.25190 | -2.78082 | 7070 ft | 229 kts | 115° |
| 2026-04-16 11:08 | 43.24540 | -2.76009 | 7471 ft | 244 kts | 106° |
| 2026-04-16 11:09 | 43.24381 | -2.73612 | 7899 ft | 262 kts | 82° |
| 2026-04-16 11:09 | 43.24913 | -2.71209 | 8693 ft | 266 kts | 60° |
| 2026-04-16 11:09 | 43.26035 | -2.69205 | 9522 ft | 267 kts | 40° |
| 2026-04-16 11:09 | 43.27413 | -2.67453 | 10304 ft | 273 kts | 40° |
| 2026-04-16 11:10 | 43.28819 | -2.65665 | 11060 ft | 278 kts | 40° |
| 2026-04-16 11:10 | 43.30170 | -2.63741 | 11808 ft | 284 kts | 52° |
| 2026-04-16 11:10 | 43.31057 | -2.61290 | 12560 ft | 292 kts | 73° |
| 2026-04-16 11:10 | 43.31309 | -2.58503 | 13263 ft | 298 kts | 91° |
| 2026-04-16 11:11 | 43.31267 | -2.55626 | 13944 ft | 305 kts | 90° |
| 2026-04-16 11:11 | 43.31233 | -2.52688 | 14556 ft | 311 kts | 90° |
| 2026-04-16 11:11 | 43.31204 | -2.49705 | 15229 ft | 314 kts | 90° |
| 2026-04-16 11:11 | 43.31177 | -2.46694 | 15913 ft | 317 kts | 90° |
| 2026-04-16 11:12 | 43.31148 | -2.43657 | 16591 ft | 320 kts | 90° |
| 2026-04-16 11:12 | 43.31114 | -2.40591 | 17256 ft | 323 kts | 90° |
| 2026-04-16 11:12 | 43.31078 | -2.37489 | 17919 ft | 326 kts | 90° |
| 2026-04-16 11:12 | 43.31042 | -2.34372 | 18549 ft | 329 kts | 90° |
| 2026-04-16 11:13 | 43.31008 | -2.31208 | 19098 ft | 333 kts | 90° |
| 2026-04-16 11:13 | 43.30975 | -2.28026 | 19657 ft | 335 kts | 90° |
| 2026-04-16 11:13 | 43.30952 | -2.24809 | 20226 ft | 338 kts | 89° |
| 2026-04-16 11:13 | 43.30960 | -2.21615 | 20769 ft | 340 kts | 89° |
| 2026-04-16 11:14 | 43.30984 | -2.18350 | 21321 ft | 343 kts | 89° |
| 2026-04-16 11:14 | 43.31012 | -2.15059 | 21861 ft | 346 kts | 89° |
| 2026-04-16 11:14 | 43.31039 | -2.11755 | 22394 ft | 348 kts | 89° |
| 2026-04-16 11:14 | 43.31060 | -2.08416 | 22920 ft | 351 kts | 90° |
| 2026-04-16 11:15 | 43.31074 | -2.05048 | 23450 ft | 353 kts | 90° |
| 2026-04-16 11:15 | 43.31086 | -2.01666 | 23945 ft | 356 kts | 90° |
| 2026-04-16 11:15 | 43.31096 | -1.98255 | 24386 ft | 358 kts | 90° |
| 2026-04-16 11:15 | 43.31105 | -1.94825 | 24814 ft | 361 kts | 90° |
| 2026-04-16 11:16 | 43.31108 | -1.91366 | 25241 ft | 364 kts | 90° |
| 2026-04-16 11:16 | 43.31110 | -1.87881 | 25665 ft | 366 kts | 90° |
| 2026-04-16 11:16 | 43.31114 | -1.84368 | 26087 ft | 369 kts | 90° |
| 2026-04-16 11:16 | 43.31265 | -1.80843 | 26501 ft | 371 kts | 84° |
| 2026-04-16 11:17 | 43.31526 | -1.77299 | 26906 ft | 374 kts | 84° |
| 2026-04-16 11:17 | 43.31784 | -1.73730 | 27306 ft | 377 kts | 84° |
| 2026-04-16 11:17 | 43.32039 | -1.70140 | 27707 ft | 380 kts | 84° |
| 2026-04-16 11:17 | 43.32293 | -1.66519 | 28105 ft | 382 kts | 84° |
| 2026-04-16 11:18 | 43.32549 | -1.62876 | 28507 ft | 385 kts | 84° |
| 2026-04-16 11:18 | 43.32807 | -1.59206 | 28913 ft | 387 kts | 84° |
| 2026-04-16 11:18 | 43.33063 | -1.55514 | 29311 ft | 390 kts | 84° |
| 2026-04-16 11:18 | 43.33319 | -1.51792 | 29763 ft | 391 kts | 84° |
| 2026-04-16 11:19 | 43.33573 | -1.48077 | 30273 ft | 391 kts | 84° |
| 2026-04-16 11:19 | 43.33827 | -1.44364 | 30707 ft | 390 kts | 84° |
| 2026-04-16 11:19 | 43.33995 | -1.41913 | 30983 ft | 390 kts | 84° |
| 2026-04-16 11:19 | 43.34249 | -1.38206 | 31371 ft | 389 kts | 84° |
| 2026-04-16 11:20 | 43.34499 | -1.34514 | 31782 ft | 388 kts | 84° |
| 2026-04-16 11:20 | 43.34747 | -1.30818 | 32186 ft | 388 kts | 84° |
| 2026-04-16 11:20 | 43.34993 | -1.27130 | 32548 ft | 388 kts | 84° |
| 2026-04-16 11:20 | 43.35236 | -1.23445 | 32918 ft | 387 kts | 84° |
| 2026-04-16 11:21 | 43.35479 | -1.19759 | 33172 ft | 388 kts | 84° |
| 2026-04-16 11:21 | 43.35960 | -1.12390 | 33216 ft | 386 kts | 84° |
| 2026-04-16 11:22 | 43.36432 | -1.05047 | 33219 ft | 385 kts | 84° |
| 2026-04-16 11:22 | 43.36905 | -0.97718 | 33227 ft | 385 kts | 84° |
| 2026-04-16 11:23 | 43.37376 | -0.90393 | 33219 ft | 384 kts | 84° |
| 2026-04-16 11:23 | 43.37842 | -0.83074 | 33223 ft | 384 kts | 84° |
| 2026-04-16 11:24 | 43.38295 | -0.75771 | 33217 ft | 383 kts | 84° |
| 2026-04-16 11:24 | 43.38740 | -0.68471 | 33221 ft | 383 kts | 84° |
| 2026-04-16 11:25 | 43.39188 | -0.61175 | 33219 ft | 382 kts | 84° |
| 2026-04-16 11:25 | 43.39630 | -0.53894 | 33218 ft | 382 kts | 84° |
| 2026-04-16 11:26 | 43.40066 | -0.46618 | 33222 ft | 384 kts | 84° |
| 2026-04-16 11:26 | 43.40514 | -0.39099 | 33218 ft | 405 kts | 84° |
| 2026-04-16 11:26 | 43.40745 | -0.35181 | 33215 ft | 417 kts | 84° |
| 2026-04-16 11:27 | 43.40979 | -0.31161 | 33220 ft | 428 kts | 84° |
| 2026-04-16 11:27 | 43.41461 | -0.22809 | 33220 ft | 449 kts | 84° |
| 2026-04-16 11:28 | 43.41969 | -0.14051 | 33233 ft | 470 kts | 84° |
| 2026-04-16 11:28 | 43.42486 | -0.04915 | 33247 ft | 485 kts | 84° |
| 2026-04-16 11:29 | 43.42990 | 0.04298 | 33240 ft | 475 kts | 84° |
| 2026-04-16 11:29 | 43.43473 | 0.13347 | 33249 ft | 474 kts | 84° |
| 2026-04-16 11:30 | 43.43958 | 0.22387 | 33252 ft | 474 kts | 84° |
| 2026-04-16 11:30 | 43.44434 | 0.31363 | 33251 ft | 473 kts | 84° |
| 2026-04-16 11:31 | 43.44913 | 0.40453 | 33251 ft | 473 kts | 84° |
| 2026-04-16 11:31 | 43.45378 | 0.49417 | 33254 ft | 473 kts | 84° |
| 2026-04-16 11:32 | 43.45839 | 0.58442 | 33254 ft | 473 kts | 84° |
| 2026-04-16 11:32 | 43.46290 | 0.67467 | 33254 ft | 473 kts | 84° |
| 2026-04-16 11:33 | 43.46729 | 0.76491 | 33253 ft | 472 kts | 84° |
| 2026-04-16 11:33 | 43.47162 | 0.85509 | 33250 ft | 472 kts | 84° |
| 2026-04-16 11:34 | 43.47594 | 0.94534 | 33255 ft | 472 kts | 84° |
| 2026-04-16 11:34 | 43.48016 | 1.03542 | 33260 ft | 471 kts | 84° |
| 2026-04-16 11:35 | 43.48427 | 1.12555 | 33262 ft | 471 kts | 84° |
| 2026-04-16 11:35 | 43.48835 | 1.21553 | 33264 ft | 471 kts | 84° |
| 2026-04-16 11:36 | 43.49238 | 1.30588 | 33267 ft | 476 kts | 84° |
| 2026-04-16 11:36 | 43.49625 | 1.39694 | 33270 ft | 477 kts | 84° |
| 2026-04-16 11:37 | 43.50016 | 1.48806 | 33269 ft | 476 kts | 84° |
| 2026-04-16 11:37 | 43.50403 | 1.57909 | 33264 ft | 476 kts | 84° |
| 2026-04-16 11:38 | 43.50781 | 1.67011 | 33258 ft | 476 kts | 84° |
| 2026-04-16 11:38 | 43.51144 | 1.76116 | 33259 ft | 476 kts | 84° |
| 2026-04-16 11:39 | 43.51502 | 1.85216 | 33258 ft | 476 kts | 84° |
| 2026-04-16 11:39 | 43.51851 | 1.94309 | 33266 ft | 475 kts | 84° |
| 2026-04-16 11:40 | 43.52199 | 2.03406 | 33270 ft | 475 kts | 84° |
| 2026-04-16 11:40 | 43.52540 | 2.12499 | 33274 ft | 475 kts | 84° |
| 2026-04-16 11:41 | 43.52873 | 2.21597 | 33276 ft | 475 kts | 84° |
| 2026-04-16 11:41 | 43.53186 | 2.30690 | 33275 ft | 475 kts | 84° |
| 2026-04-16 11:42 | 43.53495 | 2.39719 | 33276 ft | 475 kts | 84° |
| 2026-04-16 11:42 | 43.53810 | 2.48813 | 33273 ft | 475 kts | 84° |
| 2026-04-16 11:43 | 43.54117 | 2.57899 | 33268 ft | 475 kts | 84° |
| 2026-04-16 11:43 | 43.54412 | 2.66988 | 33259 ft | 474 kts | 84° |
| 2026-04-16 11:44 | 43.54694 | 2.76066 | 33245 ft | 474 kts | 84° |
| 2026-04-16 11:44 | 43.54972 | 2.85148 | 33234 ft | 474 kts | 84° |
| 2026-04-16 11:45 | 43.55241 | 2.94222 | 33226 ft | 473 kts | 84° |
| 2026-04-16 11:45 | 43.55514 | 3.03281 | 33215 ft | 473 kts | 84° |
| 2026-04-16 11:46 | 43.55775 | 3.12329 | 33207 ft | 472 kts | 85° |
| 2026-04-16 11:46 | 43.56024 | 3.21377 | 33202 ft | 472 kts | 85° |
| 2026-04-16 11:47 | 43.56261 | 3.30415 | 33200 ft | 472 kts | 85° |
| 2026-04-16 11:47 | 43.56501 | 3.39454 | 33195 ft | 471 kts | 85° |
| 2026-04-16 11:48 | 43.56724 | 3.48484 | 33191 ft | 471 kts | 85° |
| 2026-04-16 11:48 | 43.56945 | 3.57510 | 33181 ft | 471 kts | 85° |
| 2026-04-16 11:49 | 43.57157 | 3.66475 | 33176 ft | 471 kts | 85° |
| 2026-04-16 11:49 | 43.57362 | 3.75551 | 33170 ft | 470 kts | 85° |
| 2026-04-16 11:50 | 43.57562 | 3.84563 | 33166 ft | 470 kts | 85° |
| 2026-04-16 11:50 | 43.57730 | 3.93574 | 33164 ft | 471 kts | 88° |
| 2026-04-16 11:51 | 43.56606 | 4.02496 | 33166 ft | 478 kts | 106° |
| 2026-04-16 11:51 | 43.54441 | 4.11097 | 33170 ft | 478 kts | 106° |
| 2026-04-16 11:52 | 43.52276 | 4.19750 | 33169 ft | 477 kts | 106° |
| 2026-04-16 11:52 | 43.50119 | 4.28397 | 33173 ft | 477 kts | 106° |
| 2026-04-16 11:53 | 43.47952 | 4.37026 | 33169 ft | 477 kts | 106° |
| 2026-04-16 11:53 | 43.45778 | 4.45645 | 33172 ft | 476 kts | 106° |
| 2026-04-16 11:54 | 43.43598 | 4.54252 | 33165 ft | 476 kts | 106° |
| 2026-04-16 11:54 | 43.41407 | 4.62849 | 33160 ft | 476 kts | 106° |
| 2026-04-16 11:55 | 43.39206 | 4.71433 | 33157 ft | 476 kts | 106° |
| 2026-04-16 11:55 | 43.37008 | 4.80015 | 33156 ft | 476 kts | 106° |
| 2026-04-16 11:56 | 43.34810 | 4.88585 | 33149 ft | 475 kts | 106° |
| 2026-04-16 11:56 | 43.32596 | 4.97140 | 33147 ft | 475 kts | 106° |
| 2026-04-16 11:57 | 43.30396 | 5.05622 | 33145 ft | 474 kts | 106° |
| 2026-04-16 11:57 | 43.28181 | 5.14149 | 33144 ft | 474 kts | 106° |
| 2026-04-16 11:58 | 43.25962 | 5.22667 | 33148 ft | 474 kts | 106° |
| 2026-04-16 11:58 | 43.23823 | 5.31202 | 33147 ft | 471 kts | 100° |
| 2026-04-16 11:59 | 43.23130 | 5.40007 | 33149 ft | 463 kts | 86° |
| 2026-04-16 11:59 | 43.23102 | 5.48839 | 33150 ft | 463 kts | 86° |
| 2026-04-16 12:00 | 43.23048 | 5.57682 | 33152 ft | 464 kts | 87° |
| 2026-04-16 12:00 | 43.22978 | 5.66534 | 33148 ft | 465 kts | 87° |
| 2026-04-16 12:01 | 43.22910 | 5.75402 | 33143 ft | 466 kts | 87° |
| 2026-04-16 12:01 | 43.22837 | 5.84287 | 33146 ft | 467 kts | 87° |
| 2026-04-16 12:02 | 43.22727 | 5.97594 | 33133 ft | 468 kts | 88° |
| 2026-04-16 12:02 | 43.22639 | 6.06514 | 33129 ft | 468 kts | 88° |
| 2026-04-16 12:03 | 43.22539 | 6.15460 | 33125 ft | 470 kts | 88° |
| 2026-04-16 12:03 | 43.22428 | 6.24421 | 33120 ft | 471 kts | 88° |
| 2026-04-16 12:04 | 43.22317 | 6.33397 | 33121 ft | 471 kts | 89° |
| 2026-04-16 12:04 | 43.22198 | 6.42393 | 33117 ft | 472 kts | 89° |
| 2026-04-16 12:05 | 43.22078 | 6.51395 | 33114 ft | 472 kts | 88° |
| 2026-04-16 12:05 | 43.23104 | 6.60191 | 33122 ft | 467 kts | 69° |
| 2026-04-16 12:06 | 43.26083 | 6.68001 | 33127 ft | 462 kts | 51° |
| 2026-04-16 12:06 | 43.29874 | 6.75134 | 33119 ft | 463 kts | 52° |
| 2026-04-16 12:07 | 43.33654 | 6.82291 | 33133 ft | 463 kts | 52° |
| 2026-04-16 12:07 | 43.36783 | 6.88260 | 33133 ft | 463 kts | 52° |
| 2026-04-16 12:08 | 43.40541 | 6.95448 | 33134 ft | 463 kts | 52° |
| 2026-04-16 12:08 | 43.44304 | 7.02643 | 33138 ft | 464 kts | 52° |
| 2026-04-16 12:09 | 43.48071 | 7.09854 | 33140 ft | 464 kts | 52° |
| 2026-04-16 12:09 | 43.51848 | 7.17075 | 33136 ft | 465 kts | 52° |
| 2026-04-16 12:10 | 43.55613 | 7.24319 | 33136 ft | 465 kts | 52° |
| 2026-04-16 12:10 | 43.59367 | 7.31586 | 33144 ft | 465 kts | 52° |
| 2026-04-16 12:11 | 43.62880 | 7.39082 | 32874 ft | 467 kts | 63° |
| 2026-04-16 12:11 | 43.64225 | 7.43167 | 32403 ft | 467 kts | 64° |
| 2026-04-16 12:11 | 43.65558 | 7.47255 | 31609 ft | 466 kts | 64° |
| 2026-04-16 12:12 | 43.66889 | 7.51325 | 30818 ft | 464 kts | 64° |
| 2026-04-16 12:12 | 43.68213 | 7.55374 | 30012 ft | 462 kts | 64° |
| 2026-04-16 12:12 | 43.69513 | 7.59355 | 29131 ft | 459 kts | 64° |
| 2026-04-16 12:12 | 43.70833 | 7.63420 | 28260 ft | 456 kts | 64° |
| 2026-04-16 12:13 | 43.72107 | 7.67354 | 27420 ft | 453 kts | 63° |
| 2026-04-16 12:13 | 43.73592 | 7.71160 | 26607 ft | 447 kts | 55° |
| 2026-04-16 12:13 | 43.75473 | 7.74611 | 25807 ft | 441 kts | 46° |
| 2026-04-16 12:13 | 43.77481 | 7.77716 | 25044 ft | 437 kts | 46° |
| 2026-04-16 12:14 | 43.79523 | 7.80891 | 24279 ft | 434 kts | 46° |
| 2026-04-16 12:14 | 43.81488 | 7.83969 | 23523 ft | 430 kts | 47° |
| 2026-04-16 12:14 | 43.83484 | 7.87105 | 22671 ft | 426 kts | 47° |
| 2026-04-16 12:14 | 43.85419 | 7.90161 | 22140 ft | 416 kts | 47° |
| 2026-04-16 12:15 | 43.87301 | 7.93139 | 21679 ft | 407 kts | 47° |
| 2026-04-16 12:15 | 43.89149 | 7.96060 | 21219 ft | 399 kts | 47° |
| 2026-04-16 12:15 | 43.90969 | 7.98929 | 20766 ft | 393 kts | 47° |
| 2026-04-16 12:15 | 43.92743 | 8.01722 | 20322 ft | 388 kts | 47° |
| 2026-04-16 12:16 | 43.94514 | 8.04519 | 19886 ft | 383 kts | 47° |
| 2026-04-16 12:16 | 43.96260 | 8.07282 | 19455 ft | 378 kts | 47° |
| 2026-04-16 12:16 | 43.97980 | 8.10011 | 19019 ft | 373 kts | 47° |
| 2026-04-16 12:16 | 43.99674 | 8.12699 | 18608 ft | 367 kts | 47° |
| 2026-04-16 12:17 | 44.01343 | 8.15348 | 18159 ft | 362 kts | 47° |
| 2026-04-16 12:17 | 44.02991 | 8.17962 | 17684 ft | 357 kts | 47° |
| 2026-04-16 12:17 | 44.04620 | 8.20542 | 17214 ft | 352 kts | 47° |
| 2026-04-16 12:17 | 44.06097 | 8.23238 | 16759 ft | 350 kts | 56° |
| 2026-04-16 12:18 | 44.07338 | 8.26111 | 16389 ft | 343 kts | 58° |
| 2026-04-16 12:18 | 44.08549 | 8.28926 | 16114 ft | 335 kts | 57° |
| 2026-04-16 12:18 | 44.09745 | 8.31700 | 15836 ft | 334 kts | 58° |
| 2026-04-16 12:18 | 44.10937 | 8.34461 | 15577 ft | 333 kts | 58° |
| 2026-04-16 12:19 | 44.12130 | 8.37217 | 15308 ft | 331 kts | 58° |
| 2026-04-16 12:19 | 44.13314 | 8.39960 | 15044 ft | 330 kts | 58° |
| 2026-04-16 12:19 | 44.14492 | 8.42693 | 14782 ft | 329 kts | 58° |
| 2026-04-16 12:19 | 44.15663 | 8.45416 | 14523 ft | 327 kts | 58° |
| 2026-04-16 12:20 | 44.16830 | 8.48134 | 14275 ft | 326 kts | 58° |
| 2026-04-16 12:20 | 44.17733 | 8.50241 | 14065 ft | 325 kts | 58° |
| 2026-04-16 12:37 | 44.18242 | 8.51430 | 13950 ft | 324 kts | 58° |
| 2026-04-16 12:38 | 44.19400 | 8.54116 | 13662 ft | 323 kts | 58° |
| 2026-04-16 12:38 | 44.20555 | 8.56798 | 13369 ft | 322 kts | 58° |
| 2026-04-16 12:38 | 44.21705 | 8.59471 | 13075 ft | 321 kts | 58° |
| 2026-04-16 12:38 | 44.22849 | 8.62132 | 12797 ft | 319 kts | 58° |
| 2026-04-16 12:39 | 44.23986 | 8.64784 | 12514 ft | 318 kts | 58° |
| 2026-04-16 12:39 | 44.25115 | 8.67425 | 12233 ft | 316 kts | 58° |
| 2026-04-16 12:39 | 44.26237 | 8.70060 | 11953 ft | 316 kts | 58° |
| 2026-04-16 12:39 | 44.27355 | 8.72686 | 11673 ft | 314 kts | 58° |
| 2026-04-16 12:40 | 44.28470 | 8.75307 | 11402 ft | 313 kts | 58° |
| 2026-04-16 12:40 | 44.29577 | 8.77918 | 11130 ft | 312 kts | 58° |
| 2026-04-16 12:40 | 44.30680 | 8.80518 | 10858 ft | 311 kts | 58° |
| 2026-04-16 12:40 | 44.31780 | 8.83111 | 10596 ft | 310 kts | 59° |
| 2026-04-16 12:41 | 44.32876 | 8.85696 | 10330 ft | 309 kts | 59° |
| 2026-04-16 12:41 | 44.33974 | 8.88274 | 10075 ft | 308 kts | 59° |
| 2026-04-16 12:41 | 44.35071 | 8.90839 | 9791 ft | 307 kts | 59° |
| 2026-04-16 12:41 | 44.36162 | 8.93395 | 9497 ft | 306 kts | 59° |
| 2026-04-16 12:42 | 44.37248 | 8.95942 | 9203 ft | 304 kts | 59° |
| 2026-04-16 12:42 | 44.38330 | 8.98476 | 8931 ft | 302 kts | 59° |
| 2026-04-16 12:42 | 44.39404 | 9.00998 | 8651 ft | 301 kts | 59° |
| 2026-04-16 12:42 | 44.40462 | 9.03505 | 8378 ft | 299 kts | 60° |
| 2026-04-16 12:43 | 44.41089 | 9.06241 | 8098 ft | 298 kts | 86° |
| 2026-04-16 12:43 | 44.40772 | 9.09049 | 7829 ft | 299 kts | 112° |
| 2026-04-16 12:43 | 44.39574 | 9.11406 | 7559 ft | 300 kts | 137° |
| 2026-04-16 12:43 | 44.37948 | 9.13241 | 7294 ft | 300 kts | 140° |
| 2026-04-16 12:44 | 44.36249 | 9.14913 | 7021 ft | 299 kts | 154° |
| 2026-04-16 12:44 | 44.34237 | 9.15406 | 6759 ft | 296 kts | 186° |
| 2026-04-16 12:44 | 44.32370 | 9.14357 | 6490 ft | 290 kts | 219° |
| 2026-04-16 12:44 | 44.31211 | 9.12128 | 6209 ft | 284 kts | 250° |
| 2026-04-16 12:45 | 44.30936 | 9.09472 | 5912 ft | 271 kts | 274° |
| 2026-04-16 12:45 | 44.31220 | 9.06938 | 5507 ft | 258 kts | 293° |
| 2026-04-16 12:45 | 44.32183 | 9.04924 | 5115 ft | 245 kts | 318° |
| 2026-04-16 12:45 | 44.33446 | 9.03395 | 4730 ft | 239 kts | 323° |
| 2026-04-16 12:46 | 44.34760 | 9.01944 | 4319 ft | 241 kts | 323° |
| 2026-04-16 12:46 | 44.36087 | 9.00503 | 3916 ft | 243 kts | 323° |
| 2026-04-16 12:46 | 44.37412 | 8.99078 | 3506 ft | 234 kts | 323° |
| 2026-04-16 12:46 | 44.38639 | 8.97715 | 3021 ft | 214 kts | 311° |
| 2026-04-16 12:47 | 44.39225 | 8.95964 | 2551 ft | 197 kts | 277° |
| 2026-04-16 12:47 | 44.39345 | 8.94069 | 1985 ft | 192 kts | 278° |
| 2026-04-16 12:47 | 44.39587 | 8.92303 | 1276 ft | 185 kts | 280° |
| 2026-04-16 12:47 | 44.39898 | 8.90605 | 938 ft | 169 kts | 286° |
| 2026-04-16 12:48 | 44.40216 | 8.89115 | 626 ft | 159 kts | 285° |
| 2026-04-16 12:48 | 44.40521 | 8.87619 | 343 ft | 153 kts | 284° |
| 2026-04-16 12:48 | 44.40796 | 8.86227 | 68 ft | 143 kts | 283° |
| 2026-04-16 12:48 | 44.41025 | 8.85023 | 19 ft | 95 kts | 285° |
| 2026-04-16 12:49 | 44.41131 | 8.84469 | 21 ft | 44 kts | 286° |
| 2026-04-16 12:49 | 44.41172 | 8.84261 | 23 ft | 16 kts | 292° |
| 2026-04-16 12:49 | 44.41215 | 8.84230 | 21 ft | 5 kts | 39° |
| 2026-04-16 12:49 | 44.41256 | 8.84293 | 20 ft | 12 kts | 51° |
| 2026-04-16 12:50 | 44.41311 | 8.84403 | 21 ft | 14 kts | 44° |
| 2026-04-16 12:50 | 44.41371 | 8.84499 | 20 ft | 15 kts | 53° |
| 2026-04-16 12:50 | 44.41413 | 8.84635 | 20 ft | 17 kts | 99° |
| 2026-04-16 12:50 | 44.41387 | 8.84797 | 20 ft | 18 kts | 103° |
| 2026-04-16 12:51 | 44.41355 | 8.84937 | 22 ft | 10 kts | 108° |
| 2026-04-16 12:51 | 44.41345 | 8.85013 | 21 ft | 4 kts | 68° |
| 2026-04-16 12:51 | 44.41366 | 8.85018 | 21 ft | 4 kts | 359° |
| 2026-04-16 12:51 | 44.41392 | 8.85017 | 21 ft | 1 kts | 358° |
| 2026-04-16 12:52 | 44.41399 | 8.85017 | 21 ft | 0 kts | 359° |
| 2026-04-16 12:53 | 44.41403 | 8.85017 | 21 ft | 2 kts | 359° |
| 2026-04-16 12:53 | 44.41407 | 8.85017 | 21 ft | 0 kts | 359° |